Time;durP1;ratioP1;P1;durP2;ratioP2;P2;SDS_P1;SDS_P2;PMS_P1;PMS_P2;Temp;Humidity;BMP_temperature;BMP_pressure;BME280_temperature;BME280_humidity;BME280_pressure;Samples;Min_cycle;Max_cycle;Signal;HPM_P1;HPM_P2
2023/02/12 00:00:35;;;;;;;104.43;50.25;;;8.40;94.60;;;;;;4975475;28;20403;-75
2023/02/12 00:03:01;;;;;;;103.05;48.80;;;8.40;96.20;;;;;;4977986;28;20483;-75
2023/02/12 00:05:26;;;;;;;113.95;52.33;;;8.40;97.40;;;;;;4992305;28;20392;-72
2023/02/12 00:07:52;;;;;;;110.68;51.22;;;8.40;97.50;;;;;;4993017;28;20400;-74
2023/02/12 00:10:18;;;;;;;110.90;51.00;;;8.30;98.00;;;;;;4983645;28;20408;-75
2023/02/12 00:12:44;;;;;;;111.03;51.80;;;8.30;98.70;;;;;;4975244;28;20403;-73
2023/02/12 00:15:09;;;;;;;116.47;52.77;;;8.30;99.60;;;;;;4976031;28;20491;-75
2023/02/12 00:17:35;;;;;;;108.13;52.57;;;8.20;99.70;;;;;;4978910;28;20384;-74
2023/02/12 00:20:00;;;;;;;120.13;54.73;;;8.20;99.90;;;;;;4985727;28;20384;-75
2023/02/12 00:22:28;;;;;;;121.43;55.53;;;8.40;98.90;;;;;;4980302;28;20793;-75
2023/02/12 00:24:54;;;;;;;113.00;52.10;;;8.30;98.60;;;;;;4979135;28;20482;-75
2023/02/12 00:27:19;;;;;;;112.90;53.38;;;8.30;99.40;;;;;;4978211;28;20427;-73
2023/02/12 00:29:45;;;;;;;120.37;53.23;;;8.30;99.60;;;;;;4976192;28;21353;-75
2023/02/12 00:32:10;;;;;;;119.85;53.53;;;8.30;99.80;;;;;;4975430;28;20420;-76
2023/02/12 00:34:36;;;;;;;116.13;52.20;;;8.20;99.90;;;;;;4975158;28;20395;-72
2023/02/12 00:37:01;;;;;;;117.00;51.97;;;8.20;99.90;;;;;;4973794;28;20389;-73
2023/02/12 00:39:27;;;;;;;114.28;52.47;;;8.40;97.90;;;;;;4974837;28;20492;-74
2023/02/12 00:41:53;;;;;;;102.53;49.78;;;8.50;95.80;;;;;;4974769;28;20395;-73
2023/02/12 00:44:18;;;;;;;112.85;50.97;;;8.50;95.90;;;;;;4974961;28;20466;-73
2023/02/12 00:46:44;;;;;;;111.45;50.85;;;8.40;95.30;;;;;;4975296;28;20396;-73
2023/02/12 00:49:09;;;;;;;107.50;50.47;;;8.40;96.10;;;;;;4974820;28;20403;-73
2023/02/12 00:51:35;;;;;;;108.22;49.58;;;8.30;96.90;;;;;;4973212;28;20504;-76
2023/02/12 00:54:00;;;;;;;113.50;52.47;;;8.30;98.10;;;;;;4975195;28;20746;-75
2023/02/12 00:56:26;;;;;;;102.57;50.00;;;8.60;96.60;;;;;;4975417;28;20384;-75
2023/02/12 00:58:51;;;;;;;107.50;51.03;;;8.60;92.00;;;;;;4974632;28;20404;-75
2023/02/12 01:01:17;;;;;;;117.30;54.77;;;8.60;93.20;;;;;;4976021;28;20822;-75
2023/02/12 01:03:42;;;;;;;119.80;54.10;;;8.50;94.10;;;;;;4991573;28;20396;-73
2023/02/12 01:06:08;;;;;;;114.90;53.83;;;8.40;95.50;;;;;;4987224;28;20392;-74
2023/02/12 01:08:33;;;;;;;114.67;52.10;;;8.30;97.30;;;;;;4974931;28;20411;-73
2023/02/12 01:11:02;;;;;;;116.25;51.88;;;8.30;98.50;;;;;;4975936;28;20423;-74
2023/02/12 01:13:29;;;;;;;117.18;54.30;;;8.20;99.10;;;;;;4977384;28;20388;-75
2023/02/12 01:16:16;;;;;;;106.90;49.78;;;8.20;99.90;;;;;;4976117;28;20446;-74
2023/02/12 01:18:42;;;;;;;108.03;52.80;;;8.20;99.90;;;;;;4975804;28;20392;-73
2023/02/12 01:21:09;;;;;;;121.05;53.00;;;8.20;99.70;;;;;;4974124;28;20388;-74
2023/02/12 01:23:35;;;;;;;115.03;52.58;;;8.20;99.90;;;;;;4974442;28;20431;-73
2023/02/12 01:26:00;;;;;;;104.22;49.85;;;8.20;99.90;;;;;;4974410;28;20392;-74
2023/02/12 01:28:26;;;;;;;113.88;52.95;;;8.30;99.90;;;;;;4974451;28;20471;-72
2023/02/12 01:30:51;;;;;;;115.65;53.70;;;8.20;99.30;;;;;;4973874;28;20905;-73
2023/02/12 01:33:17;;;;;;;102.47;50.63;;;8.20;99.90;;;;;;4974044;28;20420;-74
2023/02/12 01:35:42;;;;;;;114.60;53.60;;;8.20;99.90;;;;;;4974040;28;20471;-73
2023/02/12 01:38:08;;;;;;;115.83;53.17;;;8.20;99.90;;;;;;4974422;28;20392;-75
2023/02/12 01:40:36;;;;;;;111.00;51.83;;;8.20;99.90;;;;;;4973884;28;20778;-75
2023/02/12 01:43:02;;;;;;;107.72;50.70;;;8.20;99.90;;;;;;4973667;28;20392;-75
2023/02/12 01:45:27;;;;;;;95.90;48.93;;;8.20;99.90;;;;;;4974071;28;20415;-74
2023/02/12 01:47:53;;;;;;;99.23;48.63;;;8.20;99.90;;;;;;4974289;28;20400;-76
2023/02/12 01:50:20;;;;;;;97.60;49.27;;;8.30;99.70;;;;;;4973616;28;20428;-75
2023/02/12 01:52:54;;;;;;;106.50;48.90;;;8.40;96.90;;;;;;4973412;28;20400;-74
2023/02/12 01:55:20;;;;;;;103.80;49.28;;;8.50;95.60;;;;;;4973708;28;20384;-74
2023/02/12 01:57:48;;;;;;;100.03;48.38;;;8.70;93.80;;;;;;4973829;28;20400;-74
2023/02/12 02:00:17;;;;;;;109.22;51.42;;;8.80;88.50;;;;;;4973836;28;20463;-73
2023/02/12 02:02:47;;;;;;;102.63;48.40;;;8.70;88.40;;;;;;4973199;28;20388;-74
2023/02/12 02:05:19;;;;;;;102.82;49.30;;;8.60;90.30;;;;;;4973482;28;20412;-74
2023/02/12 02:07:45;;;;;;;112.22;52.65;;;8.70;90.50;;;;;;4973381;28;20412;-75
2023/02/12 02:10:11;;;;;;;107.43;50.78;;;8.60;89.90;;;;;;4973475;28;20389;-74
2023/02/12 02:15:24;;;;;;;112.07;50.67;;;8.40;94.00;;;;;;4973423;28;20388;-74
2023/02/12 02:18:01;;;;;;;115.80;53.20;;;8.30;95.90;;;;;;4973417;28;20391;-73
2023/02/12 02:21:03;;;;;;;105.75;51.45;;;8.30;97.20;;;;;;4973073;28;20420;-75
2023/02/12 02:23:57;;;;;;;107.50;50.05;;;8.20;98.40;;;;;;4973160;28;20809;-74
2023/02/12 02:27:01;;;;;;;113.82;51.85;;;8.10;99.50;;;;;;4972809;28;20387;-73
2023/02/12 02:30:02;;;;;;;115.22;52.67;;;8.10;99.90;;;;;;4972968;28;20384;-74
2023/02/12 02:32:40;;;;;;;114.22;51.83;;;8.00;99.90;;;;;;4968677;28;20451;-75
2023/02/12 02:35:27;;;;;;;116.03;54.22;;;8.00;99.90;;;;;;4972965;28;20940;-72
2023/02/12 02:38:06;;;;;;;113.15;53.13;;;8.00;99.90;;;;;;4972955;28;20750;-73
2023/02/12 02:40:48;;;;;;;107.72;51.05;;;7.90;99.90;;;;;;4972651;28;20483;-74
2023/02/12 02:43:27;;;;;;;103.80;49.15;;;7.90;99.90;;;;;;4972812;28;20742;-74
2023/02/12 02:46:05;;;;;;;110.88;50.75;;;7.90;99.90;;;;;;4972938;28;20384;-72
2023/02/12 02:48:39;;;;;;;109.95;52.03;;;8.00;99.90;;;;;;4972806;28;20396;-73
2023/02/12 02:51:16;;;;;;;111.57;52.65;;;8.00;99.90;;;;;;4972540;28;20511;-73
2023/02/12 02:53:47;;;;;;;108.85;51.25;;;7.90;99.90;;;;;;4973078;28;20407;-73
2023/02/12 02:56:16;;;;;;;112.10;51.90;;;7.90;99.90;;;;;;4973396;28;20518;-74
2023/02/12 02:58:50;;;;;;;112.85;52.92;;;7.90;99.90;;;;;;4974701;28;20766;-73
2023/02/12 03:01:46;;;;;;;113.20;52.20;;;8.00;99.90;;;;;;4988589;28;20406;-73
2023/02/12 03:04:19;;;;;;;111.90;50.45;;;7.90;99.90;;;;;;4988392;28;20459;-73
2023/02/12 03:06:55;;;;;;;112.35;52.50;;;8.00;99.90;;;;;;4976426;28;20399;-73
2023/02/12 03:09:30;;;;;;;113.15;52.78;;;8.00;99.90;;;;;;4973036;28;20388;-75
2023/02/12 03:12:00;;;;;;;118.07;53.37;;;8.00;99.90;;;;;;4988026;28;20430;-74
2023/02/12 03:14:39;;;;;;;126.43;53.97;;;8.00;99.90;;;;;;4973480;28;20392;-74
2023/02/12 03:17:15;;;;;;;118.15;53.80;;;8.00;99.90;;;;;;4973572;28;20384;-74
2023/02/12 03:19:57;;;;;;;120.72;53.17;;;8.00;99.90;;;;;;4972215;28;20889;-72
2023/02/12 03:22:30;;;;;;;119.32;52.20;;;7.90;99.90;;;;;;4974015;28;20739;-74
2023/02/12 03:25:14;;;;;;;121.95;54.97;;;8.00;99.90;;;;;;4989740;28;20403;-72
2023/02/12 03:27:48;;;;;;;120.93;53.55;;;8.00;99.90;;;;;;4974642;28;20392;-73
2023/02/12 03:30:14;;;;;;;120.90;54.55;;;7.90;99.90;;;;;;4975195;28;20400;-73
2023/02/12 03:33:17;;;;;;;119.90;53.53;;;7.90;99.90;;;;;;4979168;28;20484;-74
2023/02/12 03:35:52;;;;;;;115.18;53.45;;;7.90;99.90;;;;;;4984360;28;20479;-73
2023/02/12 03:38:36;;;;;;;122.18;53.58;;;7.90;99.90;;;;;;4983408;28;20387;-74
2023/02/12 03:41:10;;;;;;;120.13;54.17;;;7.90;99.90;;;;;;4976728;28;20396;-73
2023/02/12 03:43:58;;;;;;;123.32;53.88;;;7.80;99.90;;;;;;4976860;28;20396;-73
2023/02/12 03:46:46;;;;;;;123.53;53.25;;;7.80;99.90;;;;;;4976327;28;20394;-73
2023/02/12 03:49:26;;;;;;;124.47;55.13;;;7.70;99.90;;;;;;4976014;28;20415;-74
2023/02/12 03:51:52;;;;;;;127.65;55.30;;;7.70;99.90;;;;;;4975062;28;20431;-75
2023/02/12 03:54:20;;;;;;;124.55;55.85;;;7.60;99.90;;;;;;4975872;28;20420;-73
2023/02/12 03:57:04;;;;;;;122.93;53.17;;;7.70;99.90;;;;;;4980093;28;20402;-73
2023/02/12 03:59:30;;;;;;;126.13;53.92;;;7.70;99.90;;;;;;4986518;28;20406;-75
2023/02/12 04:01:58;;;;;;;116.97;53.03;;;7.80;99.90;;;;;;4993276;28;20391;-74
2023/02/12 04:04:25;;;;;;;116.82;52.92;;;7.90;99.90;;;;;;4995085;28;20821;-74
2023/02/12 04:06:52;;;;;;;122.68;54.75;;;7.80;99.90;;;;;;4994079;28;20478;-74
2023/02/12 04:09:18;;;;;;;131.05;55.72;;;7.80;99.90;;;;;;4994765;28;20418;-75
2023/02/12 04:12:21;;;;;;;121.45;55.58;;;7.80;99.90;;;;;;4994778;28;20406;-73
2023/02/12 04:15:07;;;;;;;124.78;55.05;;;7.70;99.90;;;;;;4994375;28;20402;-72
2023/02/12 04:18:08;;;;;;;121.50;54.58;;;7.70;99.90;;;;;;4994651;28;20417;-73
2023/02/12 04:20:58;;;;;;;129.60;55.20;;;7.70;99.90;;;;;;4993965;28;20394;-73
2023/02/12 04:23:53;;;;;;;117.80;54.97;;;7.70;99.90;;;;;;4994382;28;20410;-76
2023/02/12 04:26:23;;;;;;;120.25;54.72;;;7.70;99.90;;;;;;4995329;28;20850;-77
2023/02/12 04:29:06;;;;;;;127.25;54.50;;;7.70;99.90;;;;;;4994538;28;20448;-74
2023/02/12 04:31:42;;;;;;;124.15;54.30;;;7.70;99.90;;;;;;4994604;28;20406;-75
2023/02/12 04:34:23;;;;;;;130.40;56.47;;;7.70;99.90;;;;;;4995162;28;20398;-74
2023/02/12 04:36:56;;;;;;;114.75;55.28;;;7.70;99.90;;;;;;4995455;28;20501;-73
2023/02/12 04:39:27;;;;;;;128.70;55.47;;;7.70;99.90;;;;;;4995362;28;20387;-74
2023/02/12 04:41:52;;;;;;;122.63;54.63;;;7.70;99.90;;;;;;4995001;28;20810;-74
2023/02/12 04:44:22;;;;;;;130.30;55.10;;;7.70;99.90;;;;;;4996658;28;20418;-75
2023/02/12 04:46:48;;;;;;;126.45;55.45;;;7.80;99.90;;;;;;4995948;28;20409;-75
2023/02/12 04:49:16;;;;;;;125.70;54.37;;;7.80;99.90;;;;;;4995150;28;20430;-73
2023/02/12 04:51:42;;;;;;;128.87;56.03;;;7.80;99.90;;;;;;4996681;28;20491;-74
2023/02/12 04:54:07;;;;;;;123.53;56.50;;;7.80;99.90;;;;;;4995898;28;20399;-74
2023/02/12 04:56:33;;;;;;;117.47;54.72;;;7.70;99.90;;;;;;4995988;28;20448;-75
2023/02/12 04:58:59;;;;;;;129.55;55.95;;;7.70;99.90;;;;;;4996483;28;20398;-75
2023/02/12 05:01:25;;;;;;;119.35;53.47;;;7.80;99.90;;;;;;4995623;28;20483;-75
2023/02/12 05:03:51;;;;;;;122.93;55.00;;;7.80;99.90;;;;;;4995205;28;20387;-76
2023/02/12 05:06:17;;;;;;;122.00;54.10;;;7.80;99.90;;;;;;5010940;28;20410;-75
2023/02/12 05:08:42;;;;;;;125.55;54.80;;;7.90;99.90;;;;;;4996058;28;20883;-75
2023/02/12 05:11:09;;;;;;;122.97;55.07;;;7.80;99.90;;;;;;4995385;28;20406;-74
2023/02/12 05:13:35;;;;;;;133.82;57.50;;;7.80;99.90;;;;;;4995788;28;20755;-75
2023/02/12 05:16:06;;;;;;;116.65;52.97;;;7.80;99.90;;;;;;4995870;28;20391;-75
2023/02/12 05:18:32;;;;;;;126.93;53.38;;;7.90;99.90;;;;;;4996283;28;20384;-74
2023/02/12 05:21:00;;;;;;;124.10;54.22;;;7.90;99.90;;;;;;4997225;28;20386;-73
2023/02/12 05:23:27;;;;;;;120.63;53.95;;;8.00;99.90;;;;;;4996616;28;20391;-73
2023/02/12 05:25:52;;;;;;;121.45;55.35;;;8.00;99.90;;;;;;4996331;28;20417;-73
2023/02/12 05:28:18;;;;;;;123.63;53.83;;;7.90;99.90;;;;;;4995596;28;20759;-72
2023/02/12 05:30:44;;;;;;;115.80;51.43;;;7.90;99.90;;;;;;4994909;28;20402;-75
2023/02/12 05:33:09;;;;;;;123.03;55.93;;;7.90;99.90;;;;;;4993874;28;20898;-74
2023/02/12 05:35:35;;;;;;;117.40;52.83;;;7.90;99.90;;;;;;4993664;28;20406;-74
2023/02/12 05:38:01;;;;;;;118.97;53.40;;;8.00;99.90;;;;;;5003491;28;20446;-74
2023/02/12 05:40:26;;;;;;;110.10;52.00;;;8.00;99.90;;;;;;5005268;28;20382;-73
2023/02/12 05:42:52;;;;;;;114.63;53.83;;;8.00;99.90;;;;;;4997407;28;20397;-76
2023/02/12 05:45:17;;;;;;;113.60;51.80;;;8.00;99.90;;;;;;4997699;28;20394;-74
2023/02/12 05:47:43;;;;;;;127.60;54.07;;;7.90;99.90;;;;;;4997868;28;20476;-73
2023/02/12 05:50:09;;;;;;;121.53;55.17;;;7.90;99.90;;;;;;4998375;28;20397;-74
2023/02/12 05:52:35;;;;;;;118.88;53.53;;;7.80;99.90;;;;;;4994549;28;20763;-74
2023/02/12 05:55:00;;;;;;;126.55;55.78;;;7.80;99.90;;;;;;4993746;28;20398;-75
2023/02/12 05:57:26;;;;;;;128.00;55.47;;;7.80;99.90;;;;;;4994490;28;20598;-74
2023/02/12 05:59:51;;;;;;;119.70;53.20;;;7.80;99.90;;;;;;4995115;28;20409;-74
2023/02/12 06:02:17;;;;;;;121.03;54.83;;;7.80;99.90;;;;;;4994270;28;20395;-73
2023/02/12 06:04:42;;;;;;;133.85;56.88;;;7.70;99.90;;;;;;4994367;28;20417;-74
2023/02/12 06:07:08;;;;;;;124.18;55.55;;;7.70;99.90;;;;;;5007708;28;20466;-73
2023/02/12 06:09:34;;;;;;;127.90;54.33;;;7.70;99.90;;;;;;5007709;28;20800;-75
2023/02/12 06:12:00;;;;;;;125.25;55.38;;;7.70;99.90;;;;;;4994255;28;20919;-73
2023/02/12 06:14:26;;;;;;;110.87;52.57;;;7.70;99.90;;;;;;4994505;28;20422;-74
2023/02/12 06:16:51;;;;;;;114.27;50.57;;;7.80;99.90;;;;;;4994799;28;20485;-74
2023/02/12 06:19:18;;;;;;;117.00;53.80;;;8.20;99.90;;;;;;4995462;28;20761;-74
2023/02/12 06:21:44;;;;;;;114.68;52.22;;;8.10;99.90;;;;;;4993432;28;20398;-76
2023/02/12 06:24:11;;;;;;;117.00;51.72;;;8.00;99.90;;;;;;4993013;28;20390;-74
2023/02/12 06:26:37;;;;;;;119.40;54.45;;;7.90;99.90;;;;;;4993006;28;20402;-73
2023/02/12 06:29:03;;;;;;;125.40;54.17;;;7.90;99.90;;;;;;4993085;28;20399;-73
2023/02/12 06:31:31;;;;;;;122.60;53.67;;;7.80;99.90;;;;;;4992666;28;20815;-74
2023/02/12 06:34:00;;;;;;;124.47;54.25;;;7.80;99.90;;;;;;4993644;28;20394;-75
2023/02/12 06:36:25;;;;;;;123.55;52.53;;;7.80;99.90;;;;;;4992399;28;20444;-74
2023/02/12 06:38:51;;;;;;;119.22;53.25;;;7.80;99.90;;;;;;4992517;28;20394;-74
2023/02/12 06:41:17;;;;;;;121.47;52.92;;;7.90;99.90;;;;;;4994617;28;20419;-73
2023/02/12 06:43:43;;;;;;;115.90;54.10;;;7.90;99.90;;;;;;4998771;28;20390;-73
2023/02/12 06:46:09;;;;;;;121.68;55.10;;;7.90;99.90;;;;;;4999267;28;20434;-74
2023/02/12 06:48:35;;;;;;;125.10;54.10;;;7.80;99.90;;;;;;4999437;28;20887;-74
2023/02/12 06:51:10;;;;;;;122.72;53.80;;;7.80;99.90;;;;;;5000203;28;20414;-74
2023/02/12 06:53:36;;;;;;;116.97;53.30;;;7.80;99.90;;;;;;5000565;28;20386;-76
2023/02/12 06:56:10;;;;;;;117.38;52.85;;;7.80;99.90;;;;;;5000115;28;20426;-73
2023/02/12 06:58:36;;;;;;;121.10;53.33;;;7.80;99.90;;;;;;4998973;28;20895;-75
2023/02/12 07:01:12;;;;;;;120.35;54.40;;;7.80;99.90;;;;;;5000061;28;20737;-75
2023/02/12 07:03:39;;;;;;;113.95;51.15;;;7.80;99.90;;;;;;5003244;28;20395;-74
2023/02/12 07:06:05;;;;;;;118.65;52.60;;;7.90;99.90;;;;;;5003347;28;20401;-73
2023/02/12 07:08:30;;;;;;;115.45;53.50;;;7.90;99.90;;;;;;5001144;28;20394;-75
2023/02/12 07:10:56;;;;;;;113.95;51.80;;;7.80;99.90;;;;;;4998887;28;20403;-74
2023/02/12 07:13:21;;;;;;;117.22;52.90;;;8.00;99.90;;;;;;4999822;28;20409;-74
2023/02/12 07:15:47;;;;;;;130.77;55.55;;;8.00;99.90;;;;;;4998612;28;20467;-75
2023/02/12 07:18:12;;;;;;;120.72;54.50;;;7.90;99.90;;;;;;4997948;28;20441;-73
2023/02/12 07:20:38;;;;;;;122.95;52.60;;;7.90;99.90;;;;;;4997267;28;20797;-75
2023/02/12 07:23:03;;;;;;;122.63;53.73;;;7.90;99.90;;;;;;4999141;28;20386;-74
2023/02/12 07:25:29;;;;;;;117.87;53.27;;;7.90;99.90;;;;;;4999425;28;20465;-73
2023/02/12 07:27:54;;;;;;;119.70;53.47;;;7.90;99.90;;;;;;5000180;28;20398;-75
2023/02/12 07:30:20;;;;;;;121.67;52.37;;;8.00;99.90;;;;;;5000353;28;20389;-74
2023/02/12 07:32:46;;;;;;;117.40;52.60;;;8.00;99.90;;;;;;4999740;28;21112;-74
2023/02/12 07:35:11;;;;;;;127.53;56.40;;;8.10;99.90;;;;;;4993782;28;20394;-73
2023/02/12 07:37:37;;;;;;;115.97;52.90;;;8.10;99.90;;;;;;4992091;28;20475;-74
2023/02/12 07:40:02;;;;;;;124.13;53.93;;;8.10;99.90;;;;;;4991875;28;20410;-74
2023/02/12 07:42:29;;;;;;;121.50;54.50;;;8.10;99.90;;;;;;4989597;28;20402;-74
2023/02/12 07:44:54;;;;;;;119.97;53.38;;;8.20;99.90;;;;;;4991326;28;20396;-74
2023/02/12 07:47:20;;;;;;;117.75;53.63;;;8.30;99.90;;;;;;4991130;28;20403;-74
2023/02/12 07:49:45;;;;;;;119.68;54.05;;;8.30;99.90;;;;;;4992538;28;20532;-74
2023/02/12 07:52:11;;;;;;;115.70;52.33;;;8.30;99.90;;;;;;4991717;28;20409;-73
2023/02/12 07:54:36;;;;;;;121.57;54.38;;;8.30;99.90;;;;;;4991917;28;20390;-76
2023/02/12 07:57:02;;;;;;;114.78;52.55;;;8.40;99.90;;;;;;4993047;28;20445;-73
2023/02/12 07:59:27;;;;;;;118.33;54.70;;;8.50;99.90;;;;;;4991570;28;20437;-72
2023/02/12 08:01:53;;;;;;;121.03;53.50;;;8.60;99.30;;;;;;4990552;28;20449;-73
2023/02/12 08:04:22;;;;;;;116.40;53.97;;;8.60;99.10;;;;;;4991031;28;20394;-71
2023/02/12 08:06:49;;;;;;;119.95;54.42;;;8.60;97.30;;;;;;4990680;28;20398;-73
2023/02/12 08:09:21;;;;;;;123.40;53.78;;;8.70;97.00;;;;;;4990834;28;20394;-71
2023/02/12 08:11:47;;;;;;;123.03;56.75;;;8.70;96.80;;;;;;4990055;28;20414;-72
2023/02/12 08:14:16;;;;;;;122.20;55.65;;;8.70;95.60;;;;;;4991095;28;20513;-72
2023/02/12 08:16:43;;;;;;;127.53;55.00;;;8.80;94.90;;;;;;4991308;28;20397;-72
2023/02/12 08:19:08;;;;;;;112.65;52.65;;;8.80;95.40;;;;;;4990793;28;20467;-73
2023/02/12 08:21:34;;;;;;;122.07;55.50;;;8.80;94.80;;;;;;4992800;28;20477;-72
2023/02/12 08:24:00;;;;;;;120.93;55.55;;;9.00;90.90;;;;;;4993174;28;20438;-72
2023/02/12 08:26:34;;;;;;;112.85;53.03;;;9.10;89.90;;;;;;4993824;28;20394;-73
2023/02/12 08:29:03;;;;;;;111.00;52.47;;;9.10;89.10;;;;;;4994365;28;20386;-73
2023/02/12 08:31:40;;;;;;;118.17;54.40;;;9.20;89.10;;;;;;4993966;28;20497;-72
2023/02/12 08:34:06;;;;;;;122.53;54.50;;;9.10;87.50;;;;;;4994420;28;20398;-73
2023/02/12 08:36:39;;;;;;;108.07;51.15;;;9.20;87.60;;;;;;4996960;28;20414;-73
2023/02/12 08:39:06;;;;;;;129.90;54.60;;;9.20;88.30;;;;;;5008550;28;20402;-72
2023/02/12 08:41:32;;;;;;;122.22;54.25;;;9.30;86.30;;;;;;5011422;28;20390;-72
2023/02/12 08:44:00;;;;;;;113.65;54.05;;;9.40;84.40;;;;;;5001496;28;20755;-73
2023/02/12 08:46:33;;;;;;;118.53;55.35;;;9.50;83.20;;;;;;4995792;28;20393;-73
2023/02/12 08:49:02;;;;;;;116.38;54.42;;;9.40;82.70;;;;;;4998751;28;20378;-72
2023/02/12 08:51:30;;;;;;;114.30;53.83;;;9.50;82.90;;;;;;4997803;28;20907;-72
2023/02/12 08:54:01;;;;;;;119.60;54.20;;;9.50;82.20;;;;;;5002970;28;20461;-74
2023/02/12 08:56:31;;;;;;;121.65;54.45;;;9.60;81.90;;;;;;5000903;28;20397;-73
2023/02/12 08:58:58;;;;;;;123.28;56.22;;;9.70;81.90;;;;;;4997414;28;20391;-72
2023/02/12 09:01:25;;;;;;;114.40;55.08;;;9.90;78.40;;;;;;4993422;28;20409;-72
2023/02/12 09:03:51;;;;;;;114.55;53.97;;;9.90;77.20;;;;;;4993579;28;20385;-73
2023/02/12 09:06:20;;;;;;;114.45;53.85;;;10.00;76.20;;;;;;4993417;28;20764;-72
2023/02/12 09:08:46;;;;;;;119.72;55.75;;;10.10;76.10;;;;;;4993463;28;20383;-71
2023/02/12 09:11:17;;;;;;;107.00;53.60;;;10.20;75.90;;;;;;4992987;28;20771;-73
2023/02/12 09:13:44;;;;;;;117.68;56.05;;;10.40;73.40;;;;;;4993042;28;20493;-73
2023/02/12 09:16:11;;;;;;;111.20;53.10;;;10.40;70.90;;;;;;4993223;28;20404;-72
2023/02/12 09:18:37;;;;;;;114.90;54.47;;;10.50;71.00;;;;;;4993829;28;20387;-73
2023/02/12 09:21:10;;;;;;;122.80;56.87;;;10.50;69.70;;;;;;4992838;28;20748;-73
2023/02/12 09:23:37;;;;;;;116.10;55.38;;;10.50;69.20;;;;;;4993030;28;20489;-74
2023/02/12 09:26:05;;;;;;;115.83;55.30;;;10.50;70.10;;;;;;4993233;28;20382;-75
2023/02/12 09:28:30;;;;;;;111.65;54.38;;;10.60;69.30;;;;;;4993017;28;20763;-75
2023/02/12 09:30:56;;;;;;;111.88;54.55;;;10.70;68.10;;;;;;4992874;28;20414;-75
2023/02/12 09:33:22;;;;;;;109.38;53.65;;;10.70;67.70;;;;;;4992472;28;20389;-73
2023/02/12 09:35:48;;;;;;;115.93;55.08;;;11.00;64.10;;;;;;4993057;28;20811;-74
2023/02/12 09:38:13;;;;;;;111.93;54.08;;;11.20;59.90;;;;;;4993008;28;20394;-71
2023/02/12 09:41:00;;;;;;;115.90;53.87;;;11.20;59.00;;;;;;4992323;28;20768;-73
2023/02/12 09:43:41;;;;;;;107.15;53.28;;;11.20;59.20;;;;;;4992988;28;20843;-73
2023/02/12 09:46:28;;;;;;;100.50;50.35;;;11.30;58.30;;;;;;4992530;28;20402;-73
2023/02/12 09:49:11;;;;;;;108.95;54.97;;;11.30;57.00;;;;;;4992689;28;20386;-73
2023/02/12 09:51:40;;;;;;;111.47;54.72;;;11.40;56.10;;;;;;4992233;28;20812;-74
2023/02/12 09:54:18;;;;;;;114.10;55.58;;;11.50;55.50;;;;;;4992890;28;20860;-73
2023/02/12 09:56:48;;;;;;;104.43;52.72;;;11.60;54.30;;;;;;4992719;28;20757;-72
2023/02/12 09:59:30;;;;;;;102.40;50.70;;;11.60;52.50;;;;;;4992783;28;20989;-73
2023/02/12 10:01:57;;;;;;;96.50;50.80;;;11.60;49.40;;;;;;4992678;28;20386;-73
2023/02/12 10:04:24;;;;;;;89.45;47.55;;;11.60;50.30;;;;;;4991875;28;20476;-73
2023/02/12 10:07:00;;;;;;;90.15;47.33;;;11.70;48.00;;;;;;4991346;28;20402;-73
2023/02/12 10:09:38;;;;;;;94.93;49.30;;;11.90;47.60;;;;;;4991713;28;20729;-73
2023/02/12 10:12:25;;;;;;;103.68;51.75;;;11.90;47.80;;;;;;4991632;28;20421;-74
2023/02/12 10:14:56;;;;;;;100.53;52.03;;;11.90;48.10;;;;;;4992318;28;20387;-73
2023/02/12 10:17:50;;;;;;;103.60;50.83;;;11.80;49.70;;;;;;4992869;28;20429;-72
2023/02/12 10:20:53;;;;;;;103.95;51.47;;;11.80;51.40;;;;;;4991576;28;20837;-72
2023/02/12 10:23:50;;;;;;;99.72;50.67;;;11.80;50.50;;;;;;4991987;28;20436;-73
2023/02/12 10:26:34;;;;;;;112.47;53.83;;;11.80;50.60;;;;;;4992785;28;20477;-73
2023/02/12 10:29:28;;;;;;;103.93;52.22;;;12.00;51.50;;;;;;4992174;28;20397;-72
2023/02/12 10:32:10;;;;;;;98.07;51.13;;;12.00;50.20;;;;;;4991718;28;20461;-72
2023/02/12 10:34:40;;;;;;;89.25;47.80;;;12.10;49.80;;;;;;4991586;28;20461;-73
2023/02/12 10:37:24;;;;;;;82.28;45.15;;;12.20;48.50;;;;;;4991940;28;20402;-72
2023/02/12 10:39:58;;;;;;;94.07;47.78;;;12.80;40.80;;;;;;4990258;28;20962;-72
2023/02/12 10:42:38;;;;;;;86.28;46.15;;;12.80;39.60;;;;;;4991379;28;20387;-72
2023/02/12 10:45:05;;;;;;;88.90;45.60;;;12.70;42.20;;;;;;4991345;28;20404;-72
2023/02/12 10:47:30;;;;;;;93.60;48.30;;;12.80;39.80;;;;;;4991961;28;20445;-73
2023/02/12 10:50:01;;;;;;;89.55;46.80;;;12.90;39.70;;;;;;4992055;28;20788;-72
2023/02/12 10:52:40;;;;;;;79.35;42.65;;;13.10;38.30;;;;;;4992233;28;20438;-73
2023/02/12 10:55:25;;;;;;;81.22;42.85;;;13.20;35.90;;;;;;4992309;28;20390;-73
2023/02/12 10:57:51;;;;;;;90.93;42.20;;;13.20;35.50;;;;;;4992214;28;20469;-73
2023/02/12 11:00:28;;;;;;;64.20;37.05;;;12.90;35.80;;;;;;4994519;28;20437;-74
2023/02/12 11:03:12;;;;;;;57.60;32.43;;;13.00;34.10;;;;;;4996658;28;20810;-73
2023/02/12 11:05:40;;;;;;;63.42;36.00;;;13.10;31.60;;;;;;5000787;28;20382;-73
2023/02/12 11:08:07;;;;;;;51.28;31.05;;;13.20;30.80;;;;;;5005166;28;20394;-73
2023/02/12 11:10:38;;;;;;;50.13;29.83;;;13.20;29.70;;;;;;5008691;28;20442;-72
2023/02/12 11:13:04;;;;;;;57.60;33.30;;;13.30;29.30;;;;;;4991842;28;20390;-73
2023/02/12 11:15:45;;;;;;;62.08;32.90;;;13.30;29.50;;;;;;4992046;28;20430;-74
2023/02/12 11:18:24;;;;;;;43.35;25.77;;;13.30;29.30;;;;;;4992337;28;20395;-73
2023/02/12 11:21:11;;;;;;;46.95;28.60;;;13.00;28.30;;;;;;4991434;28;20386;-73
2023/02/12 11:23:39;;;;;;;45.72;26.98;;;12.90;29.60;;;;;;4991152;28;20398;-73
2023/02/12 11:26:17;;;;;;;52.38;31.58;;;12.90;30.00;;;;;;4992975;28;20393;-74
2023/02/12 11:28:56;;;;;;;55.38;33.13;;;13.00;30.70;;;;;;4990744;28;20406;-72
2023/02/12 11:31:32;;;;;;;60.58;34.92;;;13.00;30.20;;;;;;4989718;28;20414;-72
2023/02/12 11:34:06;;;;;;;62.33;36.15;;;13.00;30.70;;;;;;4991317;28;20382;-73
2023/02/12 11:36:35;;;;;;;59.03;33.17;;;13.40;29.60;;;;;;4991114;28;20409;-73
2023/02/12 11:39:01;;;;;;;54.40;32.27;;;13.20;29.20;;;;;;4991139;28;20422;-72
2023/02/12 11:41:37;;;;;;;52.80;31.55;;;13.40;28.20;;;;;;4989572;28;20390;-72
2023/02/12 11:44:18;;;;;;;58.58;33.75;;;13.20;28.60;;;;;;4971725;28;20734;-73
2023/02/12 11:47:15;;;;;;;57.97;33.67;;;13.00;29.90;;;;;;4971707;28;20396;-75
2023/02/12 11:49:53;;;;;;;61.53;34.92;;;13.30;28.80;;;;;;4971468;28;20395;-73
2023/02/12 11:52:25;;;;;;;63.20;37.22;;;13.30;29.20;;;;;;4971837;28;20415;-72
2023/02/12 11:54:55;;;;;;;58.67;34.17;;;13.40;30.00;;;;;;4990186;28;20394;-73
2023/02/12 11:57:41;;;;;;;52.70;30.60;;;13.50;29.20;;;;;;4994892;28;20401;-73
2023/02/12 12:00:16;;;;;;;52.38;31.88;;;13.50;27.80;;;;;;4995347;28;20474;-73
2023/02/12 12:02:48;;;;;;;54.47;32.47;;;13.50;27.80;;;;;;4975533;28;20399;-73
2023/02/12 12:05:18;;;;;;;53.20;30.27;;;13.50;27.80;;;;;;4981073;28;20400;-74
2023/02/12 12:07:58;;;;;;;57.33;33.53;;;13.40;27.90;;;;;;4979810;28;20474;-74
2023/02/12 12:10:52;;;;;;;56.13;34.20;;;13.40;28.00;;;;;;4976605;28;20403;-73
2023/02/12 12:13:26;;;;;;;52.90;31.50;;;13.30;28.70;;;;;;4978639;28;20402;-75
2023/02/12 12:22:06;;;;;;;59.05;33.75;;;13.10;29.50;;;;;;4994326;28;20394;-73
2023/02/12 12:24:57;;;;;;;66.85;35.85;;;12.80;30.90;;;;;;4994501;28;20763;-72
2023/02/12 12:30:44;;;;;;;59.70;33.63;;;13.00;30.50;;;;;;4975718;28;20753;-72
2023/02/12 12:33:23;;;;;;;55.55;31.88;;;13.20;30.50;;;;;;4965696;28;20400;-72
2023/02/12 12:36:03;;;;;;;60.38;33.67;;;13.10;30.20;;;;;;4974847;28;20400;-73
2023/02/12 12:38:47;;;;;;;59.95;34.15;;;12.80;31.10;;;;;;4994186;28;20394;-73
2023/02/12 12:41:40;;;;;;;61.83;34.23;;;12.70;33.30;;;;;;4994382;28;20610;-74
2023/02/12 12:44:27;;;;;;;69.33;35.63;;;12.90;32.40;;;;;;4994958;28;20401;-74
2023/02/12 12:47:15;;;;;;;69.80;38.78;;;13.10;32.30;;;;;;4994426;28;20383;-73
2023/02/12 12:49:59;;;;;;;63.33;35.20;;;13.20;31.70;;;;;;4994768;28;20383;-73
2023/02/12 12:52:50;;;;;;;70.60;38.78;;;13.00;32.30;;;;;;4994787;28;20414;-72
2023/02/12 12:55:15;;;;;;;69.75;37.33;;;12.90;33.80;;;;;;4996110;28;20390;-75
2023/02/12 12:57:47;;;;;;;68.20;35.80;;;12.90;33.90;;;;;;4994298;28;20977;-73
2023/02/12 13:00:31;;;;;;;64.85;36.22;;;12.90;33.50;;;;;;4994328;28;20402;-74